createdAt,value
2019-01-28T00:03:11.590Z,3.59
2019-01-28T00:31:49.052Z,3.3
2019-01-28T01:00:27.985Z,3.29
2019-01-28T01:29:06.459Z,3.08
2019-01-28T01:57:43.886Z,2.94
2019-01-28T02:26:21.695Z,2.66
2019-01-28T02:54:57.566Z,2.42
2019-01-28T03:23:35.946Z,2.46
2019-01-28T03:52:11.321Z,1.84
2019-01-28T04:20:47.853Z,1.55
2019-01-28T04:49:24.648Z,1.24
2019-01-28T05:18:02.823Z,1.43
2019-01-28T05:46:42.358Z,1.36
2019-01-28T06:15:20.233Z,1.58
2019-01-28T06:43:58.849Z,1.48
2019-01-28T07:12:36.308Z,1.58
2019-01-28T07:41:17.500Z,2.06
2019-01-28T08:09:54.318Z,2.34
2019-01-28T08:38:30.797Z,2.62
2019-01-28T09:07:13.567Z,3.23
2019-01-28T09:35:54.369Z,3.26
2019-01-28T10:04:31.932Z,3.75
2019-01-28T10:33:09.123Z,3.66
2019-01-28T11:01:50.720Z,3.87
2019-01-28T11:30:26.691Z,4.25
2019-01-28T11:59:05.553Z,4.18
2019-01-28T12:27:41.015Z,4.22
2019-01-28T12:56:21.329Z,4.35
2019-01-28T13:25:00.249Z,4.52
2019-01-28T13:53:32.890Z,4.4
2019-01-28T14:22:03.613Z,4.23
2019-01-28T14:50:40.959Z,3.99
2019-01-28T15:19:17.453Z,3.55
2019-01-28T15:47:52.903Z,2.82
2019-01-28T16:16:29.734Z,2.52
2019-01-28T16:45:06.861Z,2.22
2019-01-28T17:13:43.364Z,2.17
2019-01-28T17:42:38.599Z,2.35
2019-01-28T18:10:41.208Z,2.59
2019-01-28T18:39:19.411Z,2.73
2019-01-28T19:07:56.295Z,2.57
2019-01-28T19:36:34.742Z,2.53
2019-01-28T20:05:12.620Z,2.41
2019-01-28T20:33:49.584Z,2.41
2019-01-28T21:02:26.877Z,2.29
2019-01-28T21:31:03.689Z,2.02
2019-01-28T21:59:41.345Z,1.82
2019-01-28T22:28:14.463Z,1.38
2019-01-28T22:56:51.903Z,1.06
2019-01-28T23:25:27.381Z,1.09
2019-01-28T23:54:06.064Z,1.11
